createdAt,value
2018-06-07T06:12:34.081Z,2.77
2018-06-07T06:15:04.675Z,2.13
2018-06-07T06:17:35.666Z,2.10
2018-06-07T06:20:08.699Z,2.80
2018-06-07T06:22:39.025Z,2.63
2018-06-07T06:25:09.993Z,2.30
2018-06-07T06:27:40.152Z,2.40
2018-06-07T06:30:11.008Z,2.30
2018-06-07T06:32:41.671Z,2.20
2018-06-07T06:35:12.373Z,2.60
2018-06-07T06:38:48.945Z,2.50
2018-06-07T06:41:18.454Z,2.10
2018-06-07T06:43:49.679Z,2.10
2018-06-07T06:46:20.230Z,2.23
2018-06-07T06:48:51.384Z,2.30
2018-06-07T06:51:22.528Z,2.10
2018-06-07T06:53:53.550Z,2.00
2018-06-07T06:56:23.736Z,2.03
2018-06-07T06:58:54.342Z,2.50
2018-06-07T07:01:26.613Z,1.93
2018-06-07T07:04:01.638Z,2.40
2018-06-07T07:06:31.867Z,2.53
2018-06-07T07:09:02.116Z,2.20
2018-06-07T07:11:33.683Z,2.57
2018-06-07T07:14:04.135Z,2.20
2018-06-07T07:16:34.230Z,2.27
2018-06-07T07:19:04.656Z,2.40
2018-06-07T07:21:37.522Z,2.60
2018-06-07T07:24:11.930Z,2.33
2018-06-07T07:26:43.073Z,2.63
2018-06-07T07:29:14.802Z,2.67
2018-06-07T07:31:47.044Z,2.30
2018-06-07T07:34:17.319Z,2.40
2018-06-07T07:36:50.891Z,2.80
2018-06-07T07:39:23.598Z,2.30
2018-06-07T07:41:54.510Z,3.00
2018-06-07T07:44:26.126Z,2.40
2018-06-07T07:46:56.442Z,2.33
2018-06-07T07:49:27.716Z,2.70
2018-06-07T07:51:59.552Z,2.67
2018-06-07T07:54:36.047Z,2.30
2018-06-07T07:57:08.314Z,2.60
2018-06-07T07:59:39.664Z,2.70
2018-06-07T08:02:12.448Z,2.83
2018-06-07T08:04:42.190Z,2.47
2018-06-07T08:07:13.224Z,2.50
2018-06-07T08:09:42.713Z,2.60
2018-06-07T08:12:12.915Z,2.60
2018-06-07T08:14:44.521Z,2.57
2018-06-07T08:17:14.871Z,2.50
2018-06-07T08:19:45.570Z,2.83
2018-06-07T08:22:23.154Z,2.90
2018-06-07T08:24:55.530Z,2.83
2018-06-07T08:27:28.021Z,2.93
2018-06-07T08:30:00.508Z,2.83
2018-06-07T08:32:33.775Z,2.93
2018-06-07T08:35:07.555Z,2.73
2018-06-07T08:37:43.542Z,2.63
2018-06-07T08:40:17.879Z,3.13
2018-06-07T08:42:50.511Z,3.00
2018-06-07T08:45:21.650Z,2.50
2018-06-07T08:47:52.473Z,2.77
2018-06-07T08:50:24.645Z,3.13
2018-06-07T08:52:56.059Z,2.73
2018-06-07T08:55:27.490Z,2.87
2018-06-07T08:57:59.013Z,2.93
2018-06-07T09:00:29.832Z,3.27
2018-06-07T09:03:00.838Z,3.00
2018-06-07T09:05:31.434Z,3.03
2018-06-07T09:08:02.128Z,2.90
2018-06-07T09:10:33.146Z,3.67
2018-06-07T09:13:05.676Z,2.93
2018-06-07T09:15:36.700Z,3.27
2018-06-07T09:18:09.568Z,3.50
2018-06-07T09:20:40.111Z,3.20
2018-06-07T09:23:11.480Z,3.43
2018-06-07T09:25:42.954Z,3.43
2018-06-07T09:28:16.868Z,3.40
2018-06-07T09:30:49.009Z,3.10
2018-06-07T09:33:21.744Z,3.00
2018-06-07T09:35:53.594Z,3.30
2018-06-07T09:38:25.019Z,3.30
2018-06-07T09:40:57.143Z,3.73
2018-06-07T09:43:33.936Z,3.27
2018-06-07T09:46:06.014Z,3.53
2018-06-07T09:48:39.071Z,3.17
2018-06-07T09:51:12.700Z,3.70
2018-06-07T09:53:46.314Z,3.83
2018-06-07T09:56:16.652Z,3.40
2018-06-07T09:58:47.801Z,3.40
2018-06-07T10:01:18.140Z,3.57
2018-06-07T10:03:48.426Z,3.40
2018-06-07T10:06:20.542Z,3.57
2018-06-07T10:08:59.621Z,3.57
2018-06-07T10:11:35.423Z,3.47
2018-06-07T10:14:06.519Z,3.57
2018-06-07T10:16:37.647Z,3.40
2018-06-07T10:19:08.022Z,3.37
2018-06-07T10:21:40.276Z,3.50
2018-06-07T10:24:11.622Z,3.77
2018-06-07T10:26:42.150Z,3.93
2018-06-07T10:29:13.004Z,3.40
2018-06-07T10:31:44.743Z,3.90
2018-06-07T10:34:17.135Z,3.43
2018-06-07T10:36:53.865Z,4.03
2018-06-07T10:39:24.633Z,4.17
2018-06-07T10:41:55.879Z,4.53
2018-06-07T10:44:27.510Z,3.83
2018-06-07T10:46:57.307Z,4.10
2018-06-07T10:49:35.996Z,4.03
2018-06-07T10:52:07.547Z,3.47
2018-06-07T10:54:38.012Z,3.93
2018-06-07T10:57:12.854Z,3.60
2018-06-07T10:59:44.490Z,3.27
2018-06-07T11:02:15.964Z,3.40
2018-06-07T11:04:51.794Z,3.40
2018-06-07T11:07:25.669Z,3.37
2018-06-07T11:09:59.444Z,3.53
2018-06-07T11:12:31.029Z,3.70
2018-06-07T11:15:12.183Z,3.50
2018-06-07T11:17:46.364Z,3.20
2018-06-07T11:20:18.036Z,3.37
2018-06-07T11:22:49.171Z,3.50
2018-06-07T11:25:19.765Z,3.63
2018-06-07T11:27:52.728Z,3.40
2018-06-07T11:30:23.834Z,4.40
2018-06-07T11:32:54.609Z,4.03
2018-06-07T11:35:32.129Z,3.97
2018-06-07T11:38:03.736Z,4.53
2018-06-07T11:40:36.102Z,5.57
2018-06-07T11:43:11.960Z,3.40
2018-06-07T11:45:55.513Z,4.10
2018-06-07T11:48:26.750Z,4.10
2018-06-07T11:50:58.483Z,3.80
2018-06-07T11:53:34.321Z,4.33
2018-06-07T11:56:05.817Z,3.90
2018-06-07T11:58:37.869Z,4.77
2018-06-07T12:01:12.252Z,4.10
2018-06-07T12:03:44.249Z,4.63
2018-06-07T12:06:16.951Z,4.67
2018-06-07T12:08:47.619Z,4.70
2018-06-07T12:11:19.549Z,3.83
2018-06-07T12:13:50.562Z,4.47
2018-06-07T12:16:21.142Z,4.60
2018-06-07T12:18:54.017Z,4.93
2018-06-07T12:21:25.368Z,4.77
2018-06-07T12:23:58.456Z,4.30
2018-06-07T12:26:31.425Z,4.90
2018-06-07T12:29:25.670Z,4.93
2018-06-07T12:32:01.366Z,4.90
2018-06-07T12:34:35.271Z,5.00
2018-06-07T12:37:07.222Z,5.80
2018-06-07T12:39:42.025Z,6.50
2018-06-07T12:42:14.083Z,5.27
2018-06-07T12:44:46.757Z,5.00
2018-06-07T12:47:17.406Z,4.67
2018-06-07T12:49:49.502Z,4.50
2018-06-07T12:52:23.187Z,5.03
2018-06-07T12:54:55.074Z,4.30
2018-06-07T12:57:38.832Z,4.53
2018-06-07T13:00:23.153Z,4.70
2018-06-07T13:03:03.152Z,4.50
2018-06-07T13:05:41.500Z,4.30
2018-06-07T13:08:17.815Z,4.77
2018-06-07T13:10:49.325Z,4.97
2018-06-07T13:13:25.545Z,4.30
2018-06-07T13:15:58.771Z,4.40
2018-06-07T13:18:38.920Z,4.63
2018-06-07T13:21:17.392Z,4.87
2018-06-07T13:23:53.742Z,4.40
2018-06-07T13:26:50.258Z,4.63
2018-06-07T13:29:26.687Z,4.70
2018-06-07T13:31:59.562Z,4.47
2018-06-07T13:34:38.947Z,4.50
2018-06-07T13:37:17.962Z,4.10
2018-06-07T13:39:51.357Z,4.70
2018-06-07T13:42:30.684Z,4.57
2018-06-07T13:45:06.628Z,4.53
2018-06-07T13:47:39.574Z,6.90
2018-06-07T13:50:19.394Z,4.90
2018-06-07T13:52:55.753Z,4.60
2018-06-07T13:55:31.752Z,5.70
2018-06-07T13:58:07.157Z,5.23
2018-06-07T14:00:45.037Z,4.60
2018-06-07T14:03:21.723Z,5.87
2018-06-07T14:05:57.301Z,5.03
2018-06-07T14:08:31.764Z,4.90
2018-06-07T14:11:05.107Z,4.70
2018-06-07T14:13:35.547Z,4.57
2018-06-07T14:16:09.506Z,4.67
2018-06-07T14:18:40.488Z,4.27
2018-06-07T14:21:13.853Z,5.27
2018-06-07T14:23:45.089Z,5.03
2018-06-07T14:26:18.952Z,5.20
2018-06-07T14:28:50.096Z,5.63
2018-06-07T14:31:22.426Z,5.10
2018-06-07T14:33:54.407Z,4.93
2018-06-07T14:36:32.008Z,5.13
2018-06-07T14:39:06.626Z,5.93
2018-06-07T14:41:37.583Z,5.00
2018-06-07T14:44:17.087Z,5.20
2018-06-07T14:46:49.196Z,5.13
2018-06-07T14:49:21.046Z,4.90
2018-06-07T14:51:52.509Z,4.87
2018-06-07T14:54:24.599Z,5.17
2018-06-07T14:56:56.757Z,5.00
2018-06-07T14:59:27.315Z,4.80
2018-06-07T15:01:57.772Z,4.73
2018-06-07T15:04:27.885Z,5.10
2018-06-07T15:06:59.082Z,4.57
2018-06-07T15:09:30.771Z,4.70
2018-06-07T15:12:03.019Z,4.93
2018-06-07T15:14:34.641Z,4.90
2018-06-07T15:17:06.880Z,5.00
2018-06-07T15:19:38.559Z,4.83
2018-06-07T15:22:08.718Z,4.43
2018-06-07T15:24:40.743Z,4.57
2018-06-07T15:27:12.951Z,4.50
2018-06-07T15:29:46.216Z,4.10
2018-06-07T15:32:20.212Z,4.60
2018-06-07T15:34:56.052Z,4.03
2018-06-07T15:37:28.538Z,4.20
2018-06-07T15:39:59.828Z,4.80
2018-06-07T15:42:37.055Z,4.77
2018-06-07T15:45:13.674Z,4.17
2018-06-07T15:47:47.354Z,4.63
2018-06-07T15:50:21.491Z,4.70
2018-06-07T15:53:03.616Z,4.57
2018-06-07T15:55:37.367Z,4.50
2018-06-07T15:58:11.693Z,4.50
2018-06-07T16:00:48.665Z,3.87
2018-06-07T16:03:24.749Z,4.73
2018-06-07T16:06:04.671Z,4.50
2018-06-07T16:08:37.432Z,4.80
2018-06-07T16:11:09.411Z,4.57
2018-06-07T16:13:41.413Z,4.90
2018-06-07T16:16:14.720Z,4.93
2018-06-07T16:18:46.295Z,4.83
2018-06-07T16:21:18.567Z,4.70
2018-06-07T16:23:52.409Z,4.40
2018-06-07T16:26:25.494Z,3.57
2018-06-07T16:28:58.001Z,4.20
2018-06-07T16:31:29.309Z,4.40
2018-06-07T16:34:09.358Z,4.50
2018-06-07T16:36:43.306Z,4.70
2018-06-07T16:39:16.047Z,4.40
2018-06-07T16:41:49.770Z,4.07
2018-06-07T16:44:21.217Z,4.70
2018-06-07T16:46:54.251Z,4.70
2018-06-07T16:50:01.333Z,4.67
2018-06-07T16:52:36.075Z,4.90
2018-06-07T16:55:09.509Z,4.80
2018-06-07T16:57:53.425Z,4.60
2018-06-07T17:00:27.644Z,4.80
2018-06-07T17:03:02.318Z,5.00
2018-06-07T17:05:36.259Z,4.60
2018-06-07T17:08:11.626Z,4.40
2018-06-07T17:10:45.198Z,4.63
2018-06-07T17:13:16.157Z,4.93
2018-06-07T17:15:49.489Z,4.80
2018-06-07T17:18:27.311Z,4.90
2018-06-07T17:21:04.326Z,5.00
2018-06-07T17:23:43.573Z,5.23
2018-06-07T17:26:19.959Z,5.20
2018-06-07T17:28:52.978Z,4.57
2018-06-07T17:31:26.649Z,5.00
2018-06-07T17:34:07.427Z,5.00
2018-06-07T17:36:44.168Z,5.27
2018-06-07T17:39:17.754Z,5.83
2018-06-07T17:41:51.489Z,5.37
2018-06-07T17:44:24.463Z,5.30
2018-06-07T17:47:14.218Z,5.73
2018-06-07T17:49:58.049Z,5.70
2018-06-07T17:52:35.578Z,5.67
2018-06-07T17:55:20.776Z,6.20
2018-06-07T17:57:53.724Z,5.90
2018-06-07T18:00:28.815Z,5.53
2018-06-07T18:03:03.754Z,7.40
2018-06-07T18:05:39.713Z,6.60
2018-06-07T18:08:14.441Z,6.47
2018-06-07T18:10:49.391Z,6.13
2018-06-07T18:13:26.491Z,6.00
2018-06-07T18:16:00.638Z,6.87
2018-06-07T18:18:35.064Z,6.90
2018-06-07T18:21:07.555Z,6.77
2018-06-07T18:23:47.033Z,7.47
2018-06-07T18:26:24.418Z,8.00
2018-06-07T18:29:00.433Z,8.37
2018-06-07T18:31:36.786Z,7.87
2018-06-07T18:34:13.412Z,8.00
2018-06-07T18:36:51.241Z,7.63
2018-06-07T18:39:33.649Z,8.50
2018-06-07T18:42:08.478Z,9.47
2018-06-07T18:44:42.600Z,8.57
2018-06-07T18:47:24.360Z,8.83
2018-06-07T18:50:02.896Z,8.87
2018-06-07T18:52:36.974Z,9.40
2018-06-07T18:55:19.440Z,10.53
2018-06-07T18:58:01.865Z,10.17
2018-06-07T19:00:41.055Z,11.47
2018-06-07T19:03:18.666Z,10.27
2018-06-07T19:05:56.988Z,10.23
2018-06-07T19:08:35.794Z,11.10
2018-06-07T19:11:09.636Z,11.03
2018-06-07T19:13:51.574Z,10.20
2018-06-07T19:16:27.478Z,10.57
2018-06-07T19:19:09.985Z,11.03
2018-06-07T19:21:44.078Z,12.47
2018-06-07T19:24:21.624Z,12.93
2018-06-07T19:27:00.465Z,12.90
2018-06-07T19:29:32.327Z,13.10
2018-06-07T19:32:12.021Z,12.93
2018-06-07T19:34:49.320Z,13.23
2018-06-07T19:37:32.987Z,13.43
2018-06-07T19:40:11.244Z,14.47
2018-06-07T19:42:47.767Z,12.03
2018-06-07T19:45:27.713Z,12.20
2018-06-07T19:48:00.968Z,10.40
2018-06-07T19:50:47.360Z,10.87
2018-06-07T19:53:19.955Z,10.80
2018-06-07T19:55:56.217Z,10.50
2018-06-07T19:58:35.885Z,11.70
2018-06-07T20:01:09.466Z,9.27
2018-06-07T20:03:44.276Z,8.73
2018-06-07T20:06:16.976Z,8.63
2018-06-07T20:08:48.531Z,9.87
2018-06-07T20:11:22.011Z,9.37
2018-06-07T20:13:58.290Z,9.60
2018-06-07T20:16:31.234Z,9.20
2018-06-07T20:19:04.654Z,8.67
2018-06-07T20:21:48.153Z,8.10
2018-06-07T20:27:08.080Z,9.53
2018-06-07T20:29:44.712Z,8.30
2018-06-07T20:32:18.974Z,9.07
2018-06-07T20:34:54.212Z,9.87
2018-06-07T20:37:44.618Z,9.40
2018-06-07T20:40:25.553Z,9.83
2018-06-07T20:43:02.433Z,9.73
2018-06-07T20:45:38.886Z,9.93
2018-06-07T20:48:21.066Z,10.10
2018-06-07T20:50:59.360Z,9.60
2018-06-07T20:53:37.601Z,9.90
2018-06-07T20:56:10.721Z,10.20
2018-06-07T20:58:45.557Z,10.53
2018-06-07T21:01:23.287Z,9.47
2018-06-07T21:06:45.795Z,9.87
2018-06-07T21:09:24.251Z,10.97
2018-06-07T21:12:04.780Z,10.67
2018-06-07T21:14:37.936Z,10.97
2018-06-07T21:17:14.595Z,10.63
2018-06-07T21:19:56.350Z,10.83
2018-06-07T21:22:29.968Z,10.93
2018-06-07T21:25:17.828Z,11.77
2018-06-07T21:27:51.167Z,11.50
2018-06-07T21:30:23.713Z,11.30
2018-06-07T21:32:57.564Z,11.27
2018-06-07T21:35:32.148Z,12.03
2018-06-07T21:38:04.525Z,11.93
2018-06-07T21:40:42.399Z,11.50
2018-06-07T21:43:13.483Z,11.27
2018-06-07T21:45:48.794Z,12.47
2018-06-07T21:48:21.330Z,11.53
2018-06-07T21:50:57.464Z,11.40
2018-06-07T21:53:29.236Z,12.10
2018-06-07T21:58:45.624Z,11.97
2018-06-07T22:01:16.560Z,11.23
2018-06-07T22:03:48.640Z,9.63
2018-06-07T22:06:25.821Z,10.17
2018-06-07T22:08:58.759Z,10.23
2018-06-07T22:11:32.483Z,10.23
2018-06-07T22:14:05.922Z,11.37
2018-06-07T22:16:37.460Z,10.03
2018-06-07T22:19:13.262Z,10.63
2018-06-07T22:21:55.355Z,11.03
2018-06-07T22:24:27.938Z,11.77
2018-06-07T22:27:01.303Z,11.33
2018-06-07T22:29:32.755Z,11.30
2018-06-07T22:32:12.187Z,11.60
2018-06-07T22:34:47.602Z,11.03
2018-06-07T22:37:18.618Z,12.03
2018-06-07T22:39:57.244Z,10.63
2018-06-07T22:42:29.714Z,12.33
2018-06-07T22:45:03.902Z,10.60
2018-06-07T22:47:36.342Z,11.73
2018-06-07T22:50:09.141Z,11.17
2018-06-07T22:52:40.740Z,10.87
2018-06-07T22:55:13.004Z,11.83
2018-06-07T22:57:49.420Z,11.23
2018-06-07T23:00:21.655Z,11.63
2018-06-07T23:02:58.510Z,11.93
2018-06-07T23:05:32.628Z,11.73
2018-06-07T23:08:04.284Z,11.37
2018-06-07T23:10:37.047Z,11.87
2018-06-07T23:13:14.874Z,11.80
2018-06-07T23:15:47.044Z,11.70
2018-06-07T23:18:19.041Z,11.30
2018-06-07T23:20:49.636Z,11.20
2018-06-07T23:23:22.194Z,11.47
2018-06-07T23:25:54.082Z,12.33
2018-06-07T23:28:24.534Z,12.07
2018-06-07T23:30:55.369Z,11.57
2018-06-07T23:33:26.716Z,11.70
2018-06-07T23:35:59.100Z,11.13
2018-06-07T23:38:30.895Z,12.03
2018-06-07T23:41:01.189Z,12.23
2018-06-07T23:43:31.913Z,12.03
2018-06-07T23:46:06.654Z,10.77
2018-06-07T23:48:39.499Z,12.87
2018-06-07T23:51:10.083Z,11.30
2018-06-07T23:53:41.741Z,11.37
2018-06-07T23:56:19.622Z,11.83
2018-06-07T23:58:50.514Z,11.83
